x

Isle Of Shoals, Nh (iosn3) Weather Station

9:00 - Sun 14th Sep 2014 All times are EDT. -4 hours from GMT.

  • Wind
    15mph, 16mph gusts
  • Luft Temp 57°f
  • Sea Pressure 1022.3mb
  • Isle Of Shoals, Nh
  • Isle Of Shoals, Nh

More Historic Weather Station data

Upgrade to MSW Pro to gain access to the past 30 days of data for over 8000 Wavebouys and Weather Stations around the globe.

Join Pro

Comparision Forecast

View Surf forecast
   
So 09/14 9:00 15 16 mph 1022.3mb 57f
8:00 16 17 mph 1022mb 59f
7:00 14 15 mph 1021.5mb 60f
6:00 9 10 mph 1021.4mb 61f
5:00 9
mph
1021.3mb 61f
4:00 7
mph
1021.2mb 60f
3:00 8 9 mph 1021mb 59f
2:00 9 11 mph 1021.2mb 58f
1:00 13 15 mph 1021.8mb 57f
12:00 8 10 mph 1022.1mb 55f
11:00 14 16 mph 1022.2mb 53f
10:00 17 21 mph 1022.5mb 52f
9:00 22 24 mph 1022.2mb 51f
8:00 21 24 mph 1021.9mb 51f
7:00 18 22 mph 1021.4mb 52f
6:00 23 29 mph 1020.1mb 53f
5:00 23 25 mph 1019.2mb 55f
4:00 17 18 mph 1019mb 56f
3:00 16 17 mph 1018.8mb 56f
2:00 9 10 mph 1018.6mb 56f
1:00 15 16 mph 1018.7mb 56f
12:00 13 14 mph 1018.9mb 57f
Sa 09/13 11:00 10 11 mph 1019.2mb 58f
10:00 6 7 mph 1019.4mb 59f
9:00 11 13 mph 1019.1mb 59f
8:00 21 23 mph 1018.9mb 58f
7:00 20 21 mph 1020.3mb 57f
6:00 20 21 mph 1022.3mb 57f
5:00 21 22 mph 1021.6mb 58f
4:00 16 18 mph 1021.4mb 59f
3:00 17 20 mph 1021.5mb 59f
2:00 17 20 mph 1022.5mb 58f
1:00 21 23 mph 1023.5mb 58f
12:00 22 23 mph 1023.7mb 58f
11:00 24 28 mph 1023.9mb 58f
10:00 24 25 mph 1024.2mb 58f
9:00 21 23 mph 1024.6mb 58f
8:00 20 22 mph 1024.9mb 57f
7:00 22 24 mph 1025.1mb 56f
6:00 22 25 mph 1024.2mb 56f
5:00 25 29 mph 1023.8mb 55f
4:00 24 28 mph 1023.9mb 55f
3:00 21 24 mph 1023.9mb 55f
2:00 20 22 mph 1024.3mb 55f
1:00 20 22 mph 1024.1mb 56f
12:00 18 20 mph 1023.8mb 57f
Fr 09/12 11:00 17 20 mph 1023.2mb 58f
10:00 18 21 mph 1022.5mb 60f
9:00  -  1 mph 1022.1mb 61f
8:00  -  1 mph 1021.2mb 61f
7:00  -  1 mph 1020.6mb 61f
6:00 6
mph
1019.9mb 61f
5:00 6 7 mph 1019.5mb 60f
4:00 7
mph
1019.1mb 60f
3:00 8
mph
1019mb 60f
2:00 8
mph
1018.4mb 59f
1:00 3
mph
1018.7mb 60f
12:00 3 5 mph 1018.6mb 59f
11:00 6 7 mph 1018.5mb 59f
10:00 13 14 mph 1018.4mb 58f
9:00 20 22 mph 1017.3mb 57f
8:00 26 29 mph 1016.2mb 56f
7:00 22 26 mph 1015.6mb 57f
6:00 22 23 mph 1014.6mb 58f
5:00 24 26 mph 1013.5mb 60f
4:00 21 23 mph 1012.8mb 62f
3:00 18 22 mph 1012.4mb 64f
2:00 20 22 mph 1011.3mb 64f
1:00 24 26 mph 1010.9mb 66f
12:00 14
mph
1010.9mb 66f
Do 09/11 11:00 24 25 mph 1009.7mb 69f
10:00 21 22 mph 1009.2mb 72f
9:00 18
mph
1008.5mb 72f
8:00 18 20 mph 1007.9mb 73f
7:00 21
mph
1007.3mb 74f
6:00 17 18 mph 1007.2mb 72f
5:00 16
mph
1007.3mb 72f
4:00 21 22 mph 1007.1mb 67f
3:00 18 20 mph 1008.1mb 65f
2:00 22 24 mph 1009.2mb 64f
1:00 26 29 mph 1009.5mb 64f
12:00 22 24 mph 1010.5mb 64f
11:00 21 22 mph 1011.4mb 64f
10:00 23 24 mph 1012.3mb 64f
9:00 21 23 mph 1012.6mb 63f
8:00 18 20 mph 1013.3mb 63f
7:00 16 17 mph 1014mb 63f
6:00 14 15 mph 1014.7mb 63f
5:00 14
mph
1014.7mb 63f
4:00 7 8 mph 1015.2mb 62f
3:00 6 7 mph 1015.3mb 62f